KHIO/HIO METAR and TAF weather

Enter ICAO airport designator
Station Type Date Time Source
KHIO METAR 2021/03/08 13:53 UTC NOAA

KHIO 081353Z 30003KT 10SM CLR M01/M01 A2998 RMK AO2 SLP153 I1000 T10111011


Station Type Date Time Source
KHIO Decoded METAR 2021/03/08 13:53 UTC NOAA

PORTLAND-HILLSBORO AIRPORT, OR, United States (KHIO) 45-33N 122-57W 68M
Mar 08, 2021 - 08:53 AM EST / 2021.03.08 1353 UTC
Wind: from the WNW (300 degrees) at 3 MPH (3 KT):0
Visibility: 10 mile(s):0
Sky conditions: clear
Temperature: 30.0 F (-1.1 C)
Dew Point: 30.0 F (-1.1 C)
Relative Humidity: 100%
Pressure (altimeter): 29.98 in. Hg (1015 hPa)
ob: KHIO 081353Z 30003KT 10SM CLR M01/M01 A2998 RMK AO2 SLP153 I1000 T10111011
cycle: 14

Station Type Date Time Source
KHIO TAF 2021/03/08 12:42 UTC NOAA

TAF KHIO 081139Z 0812/0912 VRB03KT P6SM BKN150
TEMPO 0900/0903 3SM SHRA OVC030
FM090300 16006KT P6SM BKN045
FM090700 VRB03KT P6SM BKN050
FM091000 VRB04KT P6SM BKN020

Example: see airport list